Time;durP1;ratioP1;P1;durP2;ratioP2;P2;SDS_P1;SDS_P2;PMS_P1;PMS_P2;Temp;Humidity;BMP_temperature;BMP_pressure;BME280_temperature;BME280_humidity;BME280_pressure;Samples;Min_cycle;Max_cycle;Signal;HPM_P1;HPM_P2
2021/07/03 00:01:42;;;;;;;0.20;0.20;;;21.40;78.60;;;;;;4199991;28;20399;-44
2021/07/03 00:04:05;;;;;;;0.00;0.00;;;21.40;78.60;;;;;;4212302;28;20127;-45
2021/07/03 00:06:27;;;;;;;0.10;0.10;;;21.40;78.70;;;;;;4209674;28;20545;-44
2021/07/03 00:08:50;;;;;;;0.10;0.10;;;21.40;78.70;;;;;;4196160;28;20071;-44
2021/07/03 00:11:14;;;;;;;0.00;0.00;;;21.40;78.70;;;;;;4197707;28;20170;-44
2021/07/03 00:13:36;;;;;;;0.00;0.00;;;21.40;78.70;;;;;;4212057;28;20489;-44
2021/07/03 00:15:59;;;;;;;0.00;0.00;;;21.40;78.70;;;;;;4212692;28;20060;-43
2021/07/03 00:18:22;;;;;;;0.00;0.00;;;21.40;78.70;;;;;;4212479;28;20056;-46
2021/07/03 00:20:44;;;;;;;0.00;0.00;;;21.40;78.70;;;;;;4212733;28;20054;-51
2021/07/03 00:23:08;;;;;;;0.15;0.15;;;21.30;78.70;;;;;;4195886;28;20052;-45
2021/07/03 00:25:30;;;;;;;0.05;0.05;;;21.30;78.70;;;;;;4195974;28;20062;-45
2021/07/03 00:27:54;;;;;;;0.08;0.08;;;21.30;79.60;;;;;;4196099;28;20123;-45
2021/07/03 00:30:17;;;;;;;0.20;0.20;;;21.30;78.70;;;;;;4195784;28;20060;-45
2021/07/03 00:32:40;;;;;;;0.00;0.00;;;21.30;78.80;;;;;;4210228;28;20056;-44
2021/07/03 00:35:03;;;;;;;0.10;0.10;;;21.30;78.70;;;;;;4212610;28;20054;-47
2021/07/03 00:37:25;;;;;;;0.00;0.00;;;21.30;78.70;;;;;;4212405;28;20176;-47
2021/07/03 00:39:48;;;;;;;0.43;0.40;;;21.30;78.80;;;;;;4212328;28;20406;-46
2021/07/03 00:42:11;;;;;;;0.00;0.00;;;21.30;78.80;;;;;;4198712;28;20056;-44
2021/07/03 00:44:36;;;;;;;0.20;0.20;;;21.30;78.80;;;;;;4194777;28;20049;-45
2021/07/03 00:47:02;;;;;;;0.00;0.00;;;21.30;78.80;;;;;;4194691;28;20080;-45
2021/07/03 00:49:26;;;;;;;0.20;0.20;;;21.30;78.80;;;;;;4195652;28;20053;-45
2021/07/03 00:51:48;;;;;;;0.00;0.00;;;21.30;78.80;;;;;;4196890;28;20743;-45
2021/07/03 00:54:11;;;;;;;0.00;0.00;;;21.20;78.70;;;;;;4195657;28;20126;-46
2021/07/03 00:56:34;;;;;;;0.00;0.00;;;21.20;78.70;;;;;;4195391;28;20110;-45
2021/07/03 00:58:56;;;;;;;0.00;0.00;;;21.20;78.70;;;;;;4195560;28;20482;-46
2021/07/03 01:01:20;;;;;;;0.30;0.30;;;21.20;78.70;;;;;;4201256;28;20048;-44
2021/07/03 01:03:42;;;;;;;0.28;0.28;;;21.20;78.80;;;;;;4211197;28;20051;-45
2021/07/03 01:06:05;;;;;;;0.10;0.10;;;21.20;79.60;;;;;;4211941;28;20048;-44
2021/07/03 01:08:27;;;;;;;0.28;0.28;;;21.20;78.70;;;;;;4211038;28;20052;-47
2021/07/03 01:10:49;;;;;;;0.00;0.00;;;21.20;78.80;;;;;;4206724;28;20040;-47
2021/07/03 01:13:17;;;;;;;0.05;0.05;;;21.20;78.70;;;;;;4204812;28;20056;-46
2021/07/03 01:15:39;;;;;;;0.20;0.20;;;21.10;78.70;;;;;;4213697;28;20067;-44
2021/07/03 01:18:02;;;;;;;0.00;0.00;;;21.10;78.70;;;;;;4215132;28;20445;-48
2021/07/03 01:20:26;;;;;;;0.08;0.08;;;21.10;78.80;;;;;;4213165;28;20099;-46
2021/07/03 01:22:50;;;;;;;0.20;0.20;;;21.10;78.80;;;;;;4198324;28;20457;-47
2021/07/03 01:25:13;;;;;;;1.15;0.47;;;21.10;78.80;;;;;;4198217;28;20210;-48
2021/07/03 01:27:38;;;;;;;1.15;1.05;;;21.10;78.80;;;;;;4197152;28;20615;-45
2021/07/03 01:30:00;;;;;;;0.00;0.00;;;21.10;78.80;;;;;;4197153;28;20110;-47
2021/07/03 01:32:23;;;;;;;0.25;0.25;;;21.10;78.80;;;;;;4197115;28;20087;-46
2021/07/03 01:34:45;;;;;;;0.70;0.70;;;21.10;78.80;;;;;;4197169;28;20079;-45
2021/07/03 01:37:16;;;;;;;0.00;0.00;;;21.10;78.80;;;;;;4196950;28;20107;-46
2021/07/03 01:39:44;;;;;;;0.25;0.22;;;21.10;78.80;;;;;;4198147;28;20066;-46
2021/07/03 01:42:08;;;;;;;0.30;0.30;;;21.00;78.70;;;;;;4197932;28;20106;-47
2021/07/03 01:44:31;;;;;;;0.10;0.10;;;21.00;78.70;;;;;;4212280;28;20095;-46
2021/07/03 01:46:55;;;;;;;19.27;1.45;;;21.00;78.70;;;;;;4214795;28;20675;-46
2021/07/03 01:49:18;;;;;;;0.00;0.00;;;21.00;78.70;;;;;;4196929;28;20159;-45
2021/07/03 01:51:42;;;;;;;0.00;0.00;;;21.00;78.80;;;;;;4207229;28;20098;-45
2021/07/03 01:54:04;;;;;;;0.40;0.40;;;21.00;78.80;;;;;;4196981;28;20053;-46
2021/07/03 01:56:28;;;;;;;0.00;0.00;;;21.00;78.80;;;;;;4197819;28;20062;-46
2021/07/03 01:58:51;;;;;;;0.00;0.00;;;21.00;78.80;;;;;;4197882;28;20068;-46
2021/07/03 02:01:21;;;;;;;0.00;0.00;;;21.00;78.80;;;;;;4204285;28;20051;-46
2021/07/03 02:03:44;;;;;;;0.10;0.10;;;21.00;79.60;;;;;;4211634;28;20059;-46
2021/07/03 02:06:12;;;;;;;0.00;0.00;;;21.00;78.80;;;;;;4213020;28;20052;-46
2021/07/03 02:08:34;;;;;;;0.03;0.03;;;21.00;79.00;;;;;;4214309;28;20486;-47
2021/07/03 02:11:08;;;;;;;0.00;0.00;;;21.00;78.80;;;;;;4214454;28;20048;-48
2021/07/03 02:13:35;;;;;;;0.00;0.00;;;20.90;78.60;;;;;;4203980;28;20094;-47
2021/07/03 02:15:58;;;;;;;0.00;0.00;;;21.00;78.70;;;;;;4197704;28;20049;-48
2021/07/03 02:18:28;;;;;;;0.00;0.00;;;20.90;78.70;;;;;;4196274;28;20059;-46
2021/07/03 02:20:51;;;;;;;17.80;0.85;;;20.90;78.70;;;;;;4204361;28;20055;-47
2021/07/03 02:23:19;;;;;;;0.00;0.00;;;20.90;78.60;;;;;;4213302;28;20064;-47
2021/07/03 02:25:47;;;;;;;0.00;0.00;;;20.90;78.60;;;;;;4212738;28;20060;-49
2021/07/03 02:28:15;;;;;;;0.30;0.30;;;20.90;78.60;;;;;;4214090;28;20056;-48
2021/07/03 02:30:45;;;;;;;0.13;0.13;;;20.90;78.60;;;;;;4212185;28;20544;-47
2021/07/03 02:33:08;;;;;;;0.10;0.10;;;20.90;78.60;;;;;;4212934;28;20048;-47
2021/07/03 02:35:31;;;;;;;0.10;0.10;;;20.90;78.60;;;;;;4212769;28;20054;-49
2021/07/03 02:37:54;;;;;;;0.00;0.00;;;20.80;78.50;;;;;;4213964;28;20498;-49
2021/07/03 02:40:19;;;;;;;0.00;0.00;;;20.80;78.60;;;;;;4213004;28;20052;-52
2021/07/03 02:42:41;;;;;;;0.10;0.10;;;20.80;79.40;;;;;;4212490;28;20098;-48
2021/07/03 02:45:06;;;;;;;1.08;0.70;;;20.80;78.50;;;;;;4196036;28;20103;-50
2021/07/03 02:47:29;;;;;;;0.00;0.00;;;20.80;78.90;;;;;;4196059;28;20076;-52
2021/07/03 02:49:52;;;;;;;0.00;0.00;;;20.80;78.50;;;;;;4197061;28;20133;-47
2021/07/03 02:52:14;;;;;;;0.13;0.13;;;20.80;78.50;;;;;;4195891;28;20056;-48
2021/07/03 02:54:37;;;;;;;0.00;0.00;;;20.80;78.50;;;;;;4195926;28;20052;-46
2021/07/03 02:56:59;;;;;;;1.90;0.68;;;20.80;78.50;;;;;;4195809;28;20663;-46
2021/07/03 02:59:24;;;;;;;0.15;0.15;;;20.80;78.50;;;;;;4196029;28;20052;-46
2021/07/03 03:01:47;;;;;;;0.32;0.32;;;20.80;78.50;;;;;;4195530;28;20137;-50
2021/07/03 03:04:11;;;;;;;0.30;0.30;;;20.70;78.40;;;;;;4196596;28;20113;-46
2021/07/03 03:06:33;;;;;;;0.00;0.00;;;20.70;78.40;;;;;;4211777;28;20059;-49
2021/07/03 03:08:56;;;;;;;0.00;0.00;;;20.80;78.50;;;;;;4213555;28;20074;-47
2021/07/03 03:11:19;;;;;;;0.03;0.03;;;20.70;78.40;;;;;;4213487;28;20052;-48
2021/07/03 03:13:41;;;;;;;0.03;0.03;;;20.70;78.40;;;;;;4212415;28;20106;-47
2021/07/03 03:16:05;;;;;;;0.00;0.00;;;20.70;78.40;;;;;;4200829;28;20080;-49
2021/07/03 03:18:28;;;;;;;0.22;0.22;;;20.70;78.40;;;;;;4195107;28;20084;-46
2021/07/03 03:20:51;;;;;;;0.08;0.08;;;20.70;78.40;;;;;;4208042;28;20132;-47
2021/07/03 03:23:15;;;;;;;0.00;0.00;;;20.70;78.40;;;;;;4208624;28;20045;-46
2021/07/03 03:25:38;;;;;;;0.45;0.45;;;20.70;78.40;;;;;;4212096;28;20131;-47
2021/07/03 03:28:01;;;;;;;0.00;0.00;;;20.70;78.40;;;;;;4212082;28;20510;-46
2021/07/03 03:30:23;;;;;;;0.30;0.30;;;20.70;78.40;;;;;;4213058;28;20109;-46
2021/07/03 03:32:46;;;;;;;0.00;0.00;;;20.60;79.20;;;;;;4211749;28;20048;-48
2021/07/03 03:35:10;;;;;;;0.30;0.30;;;20.60;78.40;;;;;;4196145;28;20063;-50
2021/07/03 03:37:34;;;;;;;0.00;0.00;;;20.60;78.40;;;;;;4194387;28;20144;-46
2021/07/03 03:39:56;;;;;;;0.10;0.10;;;20.60;78.40;;;;;;4196197;28;20167;-47
2021/07/03 03:42:20;;;;;;;0.32;0.32;;;20.70;78.40;;;;;;4195129;28;20133;-50
2021/07/03 03:44:42;;;;;;;0.00;0.00;;;20.60;78.20;;;;;;4196450;28;20048;-48
2021/07/03 03:47:05;;;;;;;0.10;0.10;;;20.60;78.20;;;;;;4211824;28;20079;-46
2021/07/03 03:49:30;;;;;;;0.08;0.08;;;20.60;78.20;;;;;;4209137;28;20068;-46
2021/07/03 03:51:57;;;;;;;0.10;0.10;;;20.60;78.20;;;;;;4194957;28;20853;-46
2021/07/03 03:54:22;;;;;;;0.20;0.20;;;20.60;78.10;;;;;;4195029;28;20095;-46
2021/07/03 03:56:46;;;;;;;0.43;0.40;;;20.60;78.20;;;;;;4195256;28;20528;-46
2021/07/03 03:59:09;;;;;;;0.10;0.10;;;20.60;78.10;;;;;;4194931;28;20048;-46
2021/07/03 04:01:31;;;;;;;0.00;0.00;;;20.60;78.10;;;;;;4194899;28;20048;-47
2021/07/03 04:03:55;;;;;;;0.00;0.00;;;20.60;78.10;;;;;;4194839;28;20056;-50
2021/07/03 04:06:18;;;;;;;0.00;0.00;;;20.60;78.10;;;;;;4209740;28;20051;-47
2021/07/03 04:08:40;;;;;;;0.20;0.20;;;20.60;78.10;;;;;;4211650;28;20048;-51
2021/07/03 04:11:04;;;;;;;0.00;0.00;;;20.50;78.00;;;;;;4212636;28;20088;-47
2021/07/03 04:13:26;;;;;;;0.55;0.47;;;20.50;78.00;;;;;;4212484;28;20048;-49
2021/07/03 04:15:48;;;;;;;0.00;0.00;;;20.50;78.00;;;;;;4202366;28;20507;-48
2021/07/03 04:18:10;;;;;;;0.00;0.00;;;20.50;78.00;;;;;;4195420;28;20068;-46
2021/07/03 04:20:33;;;;;;;0.03;0.03;;;20.50;78.00;;;;;;4209549;28;20546;-46
2021/07/03 04:22:54;;;;;;;0.03;0.03;;;20.50;78.10;;;;;;4212613;28;20418;-46
2021/07/03 04:25:19;;;;;;;0.00;0.00;;;20.50;78.00;;;;;;4212417;28;20048;-47
2021/07/03 04:27:43;;;;;;;0.00;0.00;;;20.50;78.10;;;;;;4210585;28;20097;-47
2021/07/03 04:30:06;;;;;;;0.10;0.10;;;20.50;78.10;;;;;;4212229;28;20535;-46
2021/07/03 04:32:31;;;;;;;0.00;0.00;;;20.50;78.00;;;;;;4211130;28;20067;-46
2021/07/03 04:34:53;;;;;;;0.00;0.00;;;20.50;78.00;;;;;;4210088;28;20090;-46
2021/07/03 04:37:15;;;;;;;0.00;0.00;;;20.50;78.00;;;;;;4212134;28;20109;-46
2021/07/03 04:39:39;;;;;;;0.30;0.30;;;20.50;78.00;;;;;;4212463;28;20051;-45
2021/07/03 04:42:01;;;;;;;0.10;0.10;;;20.50;78.00;;;;;;4212201;28;20382;-46
2021/07/03 04:44:25;;;;;;;0.00;0.00;;;20.50;78.00;;;;;;4212373;28;20044;-46
2021/07/03 04:46:47;;;;;;;0.00;0.00;;;20.50;78.00;;;;;;4195639;28;20052;-47
2021/07/03 04:49:10;;;;;;;0.00;0.00;;;20.50;78.00;;;;;;4197641;28;20513;-47
2021/07/03 04:51:32;;;;;;;0.00;0.00;;;20.50;77.90;;;;;;4204602;28;20127;-47
2021/07/03 04:53:54;;;;;;;3.17;0.68;;;20.50;77.80;;;;;;4198766;28;20140;-47
2021/07/03 04:56:17;;;;;;;0.00;0.00;;;20.60;77.80;;;;;;4198744;28;20055;-46
2021/07/03 04:58:39;;;;;;;0.00;0.00;;;20.60;77.80;;;;;;4212271;28;20502;-46
2021/07/03 05:01:02;;;;;;;0.00;0.00;;;20.60;77.80;;;;;;4214387;28;20106;-55
2021/07/03 05:03:25;;;;;;;0.50;0.50;;;20.60;77.80;;;;;;4215506;28;20494;-46
2021/07/03 05:05:47;;;;;;;0.00;0.00;;;20.70;78.40;;;;;;4213517;28;20074;-45
2021/07/03 05:08:09;;;;;;;0.65;0.65;;;20.70;78.10;;;;;;4215051;28;20081;-46
2021/07/03 05:10:31;;;;;;;0.00;0.00;;;20.70;77.80;;;;;;4209795;28;20052;-44
2021/07/03 05:12:55;;;;;;;0.00;0.00;;;20.70;77.70;;;;;;4213610;28;20056;-45
2021/07/03 05:15:17;;;;;;;0.73;0.73;;;20.70;77.60;;;;;;4201079;28;20815;-45
2021/07/03 05:17:40;;;;;;;0.08;0.08;;;20.80;77.80;;;;;;4198285;28;20499;-46
2021/07/03 05:20:04;;;;;;;0.00;0.00;;;20.80;77.80;;;;;;4203452;28;20137;-45
2021/07/03 05:22:26;;;;;;;0.05;0.05;;;20.90;77.70;;;;;;4202714;28;20506;-45
2021/07/03 05:24:48;;;;;;;0.00;0.00;;;21.10;77.50;;;;;;4211024;28;20399;-47
2021/07/03 05:27:10;;;;;;;0.00;0.00;;;21.30;76.60;;;;;;4211283;28;20048;-44
2021/07/03 05:29:32;;;;;;;0.00;0.00;;;21.50;75.90;;;;;;4198720;28;20052;-45
2021/07/03 05:31:55;;;;;;;0.00;0.00;;;21.60;75.10;;;;;;4198124;28;20066;-47
2021/07/03 05:34:18;;;;;;;0.10;0.10;;;21.70;74.60;;;;;;4198532;28;20048;-47
2021/07/03 05:36:45;;;;;;;0.00;0.00;;;21.80;74.10;;;;;;4205566;28;20407;-45
2021/07/03 05:39:07;;;;;;;0.10;0.10;;;21.90;74.00;;;;;;4214868;28;20513;-45
2021/07/03 05:41:29;;;;;;;0.00;0.00;;;21.90;73.90;;;;;;4209440;28;20055;-45
2021/07/03 05:43:51;;;;;;;0.10;0.10;;;21.90;73.90;;;;;;4204706;28;20156;-45
2021/07/03 05:46:13;;;;;;;0.00;0.00;;;21.90;73.90;;;;;;4213969;28;20134;-45
2021/07/03 05:48:36;;;;;;;0.00;0.00;;;21.90;73.80;;;;;;4211522;28;20036;-45
2021/07/03 05:51:00;;;;;;;0.82;0.82;;;21.90;73.90;;;;;;4199528;28;20761;-47
2021/07/03 05:53:22;;;;;;;0.00;0.00;;;21.80;74.00;;;;;;4198499;28;20053;-47
2021/07/03 05:55:44;;;;;;;0.00;0.00;;;21.80;75.30;;;;;;4197978;28;20057;-46
2021/07/03 05:58:06;;;;;;;0.05;0.05;;;21.80;76.10;;;;;;4197958;28;20135;-50
2021/07/03 06:00:28;;;;;;;0.00;0.00;;;21.80;77.40;;;;;;4211250;28;20059;-50
2021/07/03 06:02:50;;;;;;;0.00;0.00;;;21.80;77.80;;;;;;4214276;28;20083;-47
2021/07/03 06:05:13;;;;;;;0.15;0.08;;;21.80;79.70;;;;;;4208974;28;20437;-46
2021/07/03 06:07:36;;;;;;;0.75;0.75;;;21.80;79.60;;;;;;4206071;28;20131;-46
2021/07/03 06:09:58;;;;;;;0.17;0.17;;;21.70;79.10;;;;;;4204954;28;20052;-46
2021/07/03 06:12:20;;;;;;;0.22;0.22;;;21.70;79.10;;;;;;4192080;28;20079;-45
2021/07/03 06:14:43;;;;;;;0.52;0.52;;;21.60;79.00;;;;;;4176254;28;20036;-45
2021/07/03 06:17:06;;;;;;;0.00;0.00;;;21.60;79.00;;;;;;4176227;28;20704;-45
2021/07/03 06:19:28;;;;;;;0.10;0.10;;;21.50;79.30;;;;;;4189032;28;20053;-45
2021/07/03 06:21:50;;;;;;;0.00;0.00;;;21.60;79.20;;;;;;4190549;28;20059;-43
2021/07/03 06:24:14;;;;;;;0.00;0.00;;;21.60;78.90;;;;;;4184721;28;20561;-44
2021/07/03 06:26:35;;;;;;;9.57;1.00;;;21.60;78.80;;;;;;4181797;28;20532;-45
2021/07/03 06:28:58;;;;;;;1.48;1.38;;;21.60;78.80;;;;;;4206137;28;20063;-46
2021/07/03 06:31:19;;;;;;;0.43;0.43;;;21.70;79.10;;;;;;4208972;28;20048;-45
2021/07/03 06:33:42;;;;;;;0.13;0.13;;;21.70;79.30;;;;;;4209640;28;20095;-48
2021/07/03 06:36:04;;;;;;;0.00;0.00;;;21.70;79.40;;;;;;4197473;28;20374;-46
2021/07/03 06:38:26;;;;;;;6.82;1.23;;;21.70;79.70;;;;;;4205534;28;20098;-45
2021/07/03 06:40:50;;;;;;;0.17;0.17;;;21.60;80.00;;;;;;4206241;28;20052;-46
2021/07/03 06:43:15;;;;;;;1.55;0.65;;;21.70;79.90;;;;;;4197719;28;20068;-45
2021/07/03 06:45:37;;;;;;;0.28;0.28;;;21.80;79.60;;;;;;4193310;28;20048;-45
2021/07/03 06:47:59;;;;;;;0.00;0.00;;;21.90;79.10;;;;;;4192256;28;20507;-48
2021/07/03 06:50:22;;;;;;;0.22;0.22;;;22.00;79.20;;;;;;4205597;28;20095;-46
2021/07/03 06:52:44;;;;;;;0.95;0.95;;;22.00;79.00;;;;;;4209197;28;20409;-45
2021/07/03 06:55:08;;;;;;;0.00;0.00;;;22.10;78.90;;;;;;4198225;28;20045;-46
2021/07/03 06:57:31;;;;;;;0.45;0.45;;;22.10;78.70;;;;;;4194662;28;20135;-48
2021/07/03 06:59:53;;;;;;;0.55;0.55;;;22.20;78.50;;;;;;4208610;28;20086;-45
2021/07/03 07:02:16;;;;;;;0.15;0.15;;;22.30;78.10;;;;;;4193549;28;20513;-45
2021/07/03 07:04:39;;;;;;;0.28;0.28;;;22.30;78.30;;;;;;4191986;28;20048;-46
2021/07/03 07:07:01;;;;;;;0.77;0.77;;;22.40;78.30;;;;;;4197047;28;20052;-45
2021/07/03 07:09:23;;;;;;;5.43;1.98;;;22.40;78.50;;;;;;4203996;28;20127;-47
2021/07/03 07:11:46;;;;;;;1.20;1.20;;;22.50;77.90;;;;;;4208174;28;20051;-46
2021/07/03 07:14:09;;;;;;;1.20;1.20;;;22.50;77.50;;;;;;4192087;28;20060;-46
2021/07/03 07:16:32;;;;;;;0.45;0.45;;;22.50;77.80;;;;;;4192269;28;20044;-47
2021/07/03 07:18:54;;;;;;;5.28;2.88;;;22.50;77.50;;;;;;4191900;28;20131;-47
2021/07/03 07:21:16;;;;;;;0.17;0.17;;;22.50;77.10;;;;;;4192886;28;20513;-45
2021/07/03 07:23:38;;;;;;;4.05;1.02;;;22.50;76.70;;;;;;4208422;28;20051;-46
2021/07/03 07:26:00;;;;;;;8.77;2.30;;;22.50;77.10;;;;;;4204468;28;20494;-45
2021/07/03 07:28:22;;;;;;;0.10;0.10;;;22.60;76.90;;;;;;4191769;28;20517;-47
2021/07/03 07:30:46;;;;;;;0.68;0.68;;;22.60;76.60;;;;;;4191666;28;20589;-43
2021/07/03 07:33:08;;;;;;;1.35;1.35;;;22.60;76.60;;;;;;4193235;28;20051;-43
2021/07/03 07:35:30;;;;;;;1.60;1.45;;;22.60;76.20;;;;;;4191866;28;20513;-45
2021/07/03 07:37:53;;;;;;;0.40;0.40;;;22.50;76.70;;;;;;4192455;28;20560;-43
2021/07/03 07:40:15;;;;;;;0.20;0.20;;;22.60;76.60;;;;;;4191696;28;20076;-43
2021/07/03 07:42:38;;;;;;;0.10;0.10;;;22.50;76.50;;;;;;4191259;28;20078;-50
2021/07/03 07:45:01;;;;;;;1.98;1.88;;;22.60;76.60;;;;;;4191815;28;20064;-49
2021/07/03 07:47:40;;;;;;;1.65;1.55;;;22.60;76.40;;;;;;4178326;28;20052;-46
2021/07/03 07:50:04;;;;;;;0.15;0.15;;;22.60;76.30;;;;;;4191402;28;20775;-47
2021/07/03 07:52:26;;;;;;;0.50;0.50;;;22.60;76.20;;;;;;4189798;28;20491;-45
2021/07/03 07:54:48;;;;;;;0.40;0.40;;;22.60;76.30;;;;;;4191493;28;20418;-46
2021/07/03 07:57:15;;;;;;;0.63;0.63;;;22.50;75.90;;;;;;4190929;28;20051;-46
2021/07/03 07:59:37;;;;;;;1.88;0.90;;;22.50;75.90;;;;;;4190670;28;20509;-46
2021/07/03 08:01:59;;;;;;;0.60;0.60;;;22.50;76.10;;;;;;4189422;28;20052;-43
2021/07/03 08:04:23;;;;;;;0.30;0.30;;;22.50;76.10;;;;;;4190839;28;20510;-45
2021/07/03 08:06:45;;;;;;;1.25;0.85;;;22.50;76.10;;;;;;4191277;28;20106;-44
2021/07/03 08:09:07;;;;;;;0.38;0.38;;;22.50;75.90;;;;;;4191341;28;20524;-43
2021/07/03 08:11:29;;;;;;;0.20;0.20;;;22.60;75.90;;;;;;4191590;28;20095;-44
2021/07/03 08:13:52;;;;;;;2.75;2.15;;;22.60;75.70;;;;;;4191115;28;20051;-45
2021/07/03 08:16:14;;;;;;;2.70;1.65;;;22.60;75.60;;;;;;4189398;28;20497;-43
2021/07/03 08:18:36;;;;;;;1.45;1.45;;;22.60;76.30;;;;;;4207373;28;20490;-45
2021/07/03 08:20:59;;;;;;;0.68;0.68;;;22.60;75.40;;;;;;4202489;28;20410;-44
2021/07/03 08:23:22;;;;;;;0.52;0.52;;;22.60;75.10;;;;;;4200471;28;20048;-44
2021/07/03 08:25:44;;;;;;;0.70;0.70;;;22.60;74.70;;;;;;4189755;28;20139;-43
2021/07/03 08:28:06;;;;;;;0.68;0.68;;;22.60;74.60;;;;;;4197656;28;20064;-44
2021/07/03 08:30:30;;;;;;;1.05;0.98;;;22.60;74.60;;;;;;4192881;28;20055;-44
2021/07/03 08:32:53;;;;;;;0.30;0.30;;;22.60;74.60;;;;;;4198610;28;20059;-43
2021/07/03 08:35:15;;;;;;;0.28;0.28;;;22.60;74.60;;;;;;4196219;28;20047;-44
2021/07/03 08:37:39;;;;;;;0.30;0.30;;;22.70;74.60;;;;;;4207597;28;20459;-44
2021/07/03 08:40:03;;;;;;;0.80;0.80;;;22.70;74.50;;;;;;4185674;28;20483;-46
2021/07/03 08:42:25;;;;;;;0.98;0.98;;;22.70;74.40;;;;;;4190884;28;20052;-45
2021/07/03 08:44:48;;;;;;;0.40;0.40;;;22.70;74.20;;;;;;4191129;28;20051;-45
2021/07/03 08:47:10;;;;;;;2.20;1.38;;;22.80;74.10;;;;;;4190713;28;20060;-48
2021/07/03 08:49:32;;;;;;;17.80;1.38;;;22.80;74.00;;;;;;4181673;28;20049;-43
2021/07/03 08:51:55;;;;;;;0.38;0.38;;;22.90;73.80;;;;;;4174504;28;20502;-47
2021/07/03 08:54:19;;;;;;;0.30;0.30;;;22.90;73.60;;;;;;4174345;28;20561;-44
2021/07/03 08:56:41;;;;;;;0.80;0.63;;;22.90;73.30;;;;;;4174257;28;20051;-44
2021/07/03 08:59:14;;;;;;;0.20;0.20;;;23.00;73.20;;;;;;4174351;28;20056;-44
2021/07/03 09:01:48;;;;;;;0.10;0.10;;;23.00;73.10;;;;;;4178608;28;20534;-44
2021/07/03 09:04:10;;;;;;;0.60;0.60;;;23.00;73.10;;;;;;4173880;28;20135;-44
2021/07/03 09:06:33;;;;;;;0.52;0.52;;;23.00;73.00;;;;;;4190717;28;20048;-44
2021/07/03 09:08:55;;;;;;;2.40;1.20;;;23.00;72.90;;;;;;4190940;28;20242;-44
2021/07/03 09:11:19;;;;;;;0.00;0.00;;;23.00;72.90;;;;;;4191061;28;20072;-45
2021/07/03 09:13:44;;;;;;;1.85;1.10;;;23.00;72.90;;;;;;4190751;28;20060;-46
2021/07/03 09:16:06;;;;;;;0.15;0.15;;;23.00;72.90;;;;;;4190534;28;20052;-43
2021/07/03 09:18:30;;;;;;;1.15;1.15;;;23.00;73.00;;;;;;4190315;28;20048;-44
2021/07/03 09:20:55;;;;;;;1.98;1.83;;;23.00;73.00;;;;;;4190582;28;20418;-44
2021/07/03 09:23:20;;;;;;;0.28;0.28;;;23.00;73.00;;;;;;4190711;28;20045;-45
2021/07/03 09:25:44;;;;;;;3.53;1.35;;;22.90;73.00;;;;;;4190722;28;20044;-44
2021/07/03 09:28:13;;;;;;;1.25;1.25;;;22.90;73.10;;;;;;4190633;28;20075;-47
2021/07/03 09:30:36;;;;;;;0.55;0.55;;;22.90;73.10;;;;;;4192269;28;20051;-47
2021/07/03 09:32:58;;;;;;;0.65;0.65;;;22.90;73.10;;;;;;4196783;28;20058;-50
2021/07/03 09:35:21;;;;;;;6.95;0.55;;;22.90;73.10;;;;;;4207767;28;20059;-51
2021/07/03 09:37:44;;;;;;;0.00;0.00;;;22.90;73.10;;;;;;4210362;28;20071;-47
2021/07/03 09:40:07;;;;;;;0.00;0.00;;;22.90;73.00;;;;;;4210286;28;20551;-45
2021/07/03 09:42:35;;;;;;;0.10;0.10;;;23.00;72.90;;;;;;4209209;28;20040;-44
2021/07/03 09:44:59;;;;;;;0.32;0.32;;;23.00;72.60;;;;;;4210439;28;20047;-47
2021/07/03 09:47:21;;;;;;;0.17;0.17;;;23.00;72.20;;;;;;4210374;28;20128;-46
2021/07/03 09:49:44;;;;;;;0.70;0.70;;;23.10;72.20;;;;;;4207480;28;20500;-45
2021/07/03 09:52:06;;;;;;;0.30;0.30;;;23.10;71.90;;;;;;4209930;28;20063;-43
2021/07/03 09:54:30;;;;;;;0.20;0.20;;;23.10;72.70;;;;;;4206764;28;20070;-45
2021/07/03 09:56:58;;;;;;;3.30;0.85;;;23.20;71.60;;;;;;4210263;28;20067;-43
2021/07/03 09:59:20;;;;;;;0.15;0.15;;;23.20;71.30;;;;;;4209949;28;20113;-44
2021/07/03 10:01:44;;;;;;;0.43;0.40;;;23.30;71.20;;;;;;4208144;28;20055;-46
2021/07/03 10:04:06;;;;;;;1.70;1.60;;;23.30;71.10;;;;;;4209538;28;20070;-44
2021/07/03 10:06:32;;;;;;;0.20;0.20;;;23.30;70.90;;;;;;4209927;28;20105;-44
2021/07/03 10:08:59;;;;;;;0.52;0.45;;;23.30;70.90;;;;;;4209497;28;20127;-44
2021/07/03 10:11:25;;;;;;;0.68;0.68;;;23.30;71.00;;;;;;4209787;28;20114;-44
2021/07/03 10:13:51;;;;;;;0.10;0.10;;;23.30;70.90;;;;;;4209928;28;20048;-43
2021/07/03 10:16:15;;;;;;;0.05;0.05;;;23.30;70.90;;;;;;4207837;27;20056;-44
2021/07/03 10:18:39;;;;;;;0.38;0.38;;;23.30;70.70;;;;;;4207370;28;20044;-44
2021/07/03 10:21:09;;;;;;;0.55;0.55;;;23.40;70.70;;;;;;4207630;28;20128;-44
2021/07/03 10:23:36;;;;;;;0.15;0.15;;;23.40;70.60;;;;;;4209627;28;20109;-44
2021/07/03 10:25:58;;;;;;;0.05;0.05;;;23.40;70.40;;;;;;4209807;28;20487;-44
2021/07/03 10:28:31;;;;;;;0.82;0.75;;;23.40;70.30;;;;;;4208298;28;20059;-44
2021/07/03 10:31:08;;;;;;;0.80;0.70;;;23.40;70.30;;;;;;4202268;28;20060;-44
2021/07/03 10:33:44;;;;;;;0.25;0.25;;;23.40;71.10;;;;;;4175474;28;20133;-44
2021/07/03 10:36:07;;;;;;;0.28;0.28;;;23.40;70.10;;;;;;4191379;28;20055;-44
2021/07/03 10:38:39;;;;;;;0.20;0.20;;;23.40;70.10;;;;;;4192348;28;20075;-46
2021/07/03 10:41:14;;;;;;;1.75;0.65;;;23.40;70.10;;;;;;4194675;28;20098;-46
2021/07/03 10:43:42;;;;;;;0.10;0.10;;;23.40;70.30;;;;;;4205033;28;20835;-44
2021/07/03 10:46:04;;;;;;;0.15;0.15;;;23.40;70.30;;;;;;4196283;28;20422;-45
2021/07/03 10:48:28;;;;;;;0.38;0.38;;;23.50;70.20;;;;;;4206526;28;20048;-46
2021/07/03 10:50:54;;;;;;;0.00;0.00;;;23.50;70.90;;;;;;4208234;28;20051;-46
2021/07/03 10:53:21;;;;;;;0.25;0.25;;;23.50;69.90;;;;;;4191374;28;20056;-45
2021/07/03 10:55:44;;;;;;;3.20;1.75;;;23.50;69.70;;;;;;4191735;28;20060;-45
2021/07/03 10:58:15;;;;;;;0.00;0.00;;;23.60;69.60;;;;;;4192140;28;20720;-44
2021/07/03 11:00:37;;;;;;;0.30;0.30;;;23.60;69.40;;;;;;4178967;28;20130;-45
2021/07/03 11:02:59;;;;;;;0.00;0.00;;;23.60;69.30;;;;;;4192331;28;20056;-46
2021/07/03 11:05:21;;;;;;;0.00;0.00;;;23.70;69.20;;;;;;4192033;28;20045;-44
2021/07/03 11:07:46;;;;;;;0.20;0.20;;;23.70;69.20;;;;;;4180155;28;20048;-44
2021/07/03 11:10:10;;;;;;;0.40;0.38;;;23.70;69.10;;;;;;4175721;28;20052;-45
2021/07/03 11:12:44;;;;;;;0.00;0.00;;;23.60;69.10;;;;;;4191481;28;20090;-45
2021/07/03 11:15:07;;;;;;;0.10;0.10;;;23.70;69.10;;;;;;4191691;28;20078;-45
2021/07/03 11:17:29;;;;;;;0.10;0.10;;;23.70;69.00;;;;;;4192263;28;20524;-47
2021/07/03 11:19:53;;;;;;;0.00;0.00;;;23.70;68.90;;;;;;4192102;28;20115;-46
2021/07/03 11:22:15;;;;;;;0.10;0.10;;;23.70;68.70;;;;;;4191807;28;20064;-45
2021/07/03 11:24:47;;;;;;;0.35;0.35;;;23.70;68.60;;;;;;4192091;28;20053;-49
2021/07/03 11:27:08;;;;;;;0.00;0.00;;;23.80;68.60;;;;;;4181903;28;20052;-50
2021/07/03 11:29:31;;;;;;;0.10;0.10;;;23.80;68.60;;;;;;4201412;28;20135;-42
2021/07/03 11:32:05;;;;;;;0.10;0.10;;;23.80;68.80;;;;;;4203465;28;20430;-44
2021/07/03 11:34:27;;;;;;;0.08;0.08;;;23.90;69.30;;;;;;4199266;28;20058;-44
2021/07/03 11:36:56;;;;;;;0.35;0.35;;;24.00;68.00;;;;;;4203291;28;20047;-45
2021/07/03 11:39:21;;;;;;;0.00;0.00;;;24.00;67.80;;;;;;4202613;28;20460;-45
2021/07/03 11:41:45;;;;;;;0.20;0.20;;;24.00;67.70;;;;;;4205057;28;20064;-49
2021/07/03 11:44:08;;;;;;;0.73;0.73;;;23.90;67.60;;;;;;4208291;28;20058;-47
2021/07/03 11:46:31;;;;;;;0.40;0.40;;;24.00;67.70;;;;;;4191823;28;20053;-44
2021/07/03 11:48:53;;;;;;;0.00;0.00;;;24.00;67.50;;;;;;4191514;28;20068;-45
2021/07/03 11:51:15;;;;;;;0.63;0.63;;;24.00;67.30;;;;;;4191596;28;20122;-45
2021/07/03 11:53:38;;;;;;;0.28;0.28;;;24.00;67.00;;;;;;4198073;28;20100;-43
2021/07/03 11:56:02;;;;;;;0.30;0.30;;;24.00;66.70;;;;;;4193308;28;20544;-43
2021/07/03 11:58:27;;;;;;;0.00;0.00;;;24.10;66.60;;;;;;4190658;28;20135;-44
2021/07/03 12:00:51;;;;;;;0.38;0.38;;;24.10;66.20;;;;;;4191436;28;20078;-44
2021/07/03 12:03:15;;;;;;;0.50;0.50;;;24.10;66.10;;;;;;4191205;28;20135;-44
2021/07/03 12:05:40;;;;;;;0.00;0.00;;;24.10;65.80;;;;;;4191259;28;20059;-44
2021/07/03 12:08:06;;;;;;;0.10;0.10;;;24.10;65.60;;;;;;4191372;28;20481;-43
2021/07/03 12:10:40;;;;;;;0.00;0.00;;;24.10;65.30;;;;;;4196424;28;20088;-43
2021/07/03 12:13:03;;;;;;;0.10;0.10;;;24.10;65.10;;;;;;4206668;27;20048;-44
2021/07/03 12:15:27;;;;;;;0.00;0.00;;;24.10;65.10;;;;;;4208046;27;20058;-42
2021/07/03 12:17:51;;;;;;;0.55;0.47;;;24.10;64.70;;;;;;4207302;27;20063;-46
2021/07/03 12:20:31;;;;;;;0.20;0.20;;;24.10;64.40;;;;;;4166074;28;20048;-43
2021/07/03 12:22:56;;;;;;;0.00;0.00;;;24.20;64.30;;;;;;4174579;28;20565;-44
2021/07/03 12:25:20;;;;;;;0.00;0.00;;;24.20;64.20;;;;;;4203338;28;20054;-44
2021/07/03 12:27:42;;;;;;;0.35;0.35;;;24.20;63.90;;;;;;4207894;28;20494;-43